createdAt,value
2018-02-03T00:02:15.259Z,74.30
2018-02-03T00:04:42.820Z,74.20
2018-02-03T00:07:10.354Z,74.10
2018-02-03T00:09:38.686Z,73.80
2018-02-03T00:12:06.223Z,73.70
2018-02-03T00:14:33.773Z,74.60
2018-02-03T00:17:01.314Z,74.00
2018-02-03T00:19:28.850Z,73.90
2018-02-03T00:21:58.318Z,75.20
2018-02-03T00:24:25.848Z,74.00
2018-02-03T00:26:53.397Z,74.40
2018-02-03T00:29:20.923Z,73.70
2018-02-03T00:31:49.239Z,73.90
2018-02-03T00:34:16.772Z,73.90
2018-02-03T00:36:45.071Z,73.10
2018-02-03T00:39:12.622Z,73.10
2018-02-03T00:41:40.154Z,72.60
2018-02-03T00:44:07.713Z,71.80
2018-02-03T00:46:36.964Z,72.40
2018-02-03T00:49:04.501Z,72.40
2018-02-03T00:51:32.027Z,72.40
2018-02-03T00:53:59.555Z,72.70
2018-02-03T00:56:27.114Z,73.30
2018-02-03T00:58:54.636Z,73.30
2018-02-03T01:01:22.182Z,75.00
2018-02-03T01:03:50.466Z,74.40
2018-02-03T01:06:19.083Z,74.50
2018-02-03T01:08:46.611Z,74.60
2018-02-03T01:11:14.159Z,75.10
2018-02-03T01:13:43.487Z,74.00
2018-02-03T01:16:11.015Z,74.10
2018-02-03T01:18:38.575Z,73.50
2018-02-03T01:21:06.098Z,73.80
2018-02-03T01:23:33.646Z,72.80
2018-02-03T01:26:01.178Z,74.00
2018-02-03T01:28:28.739Z,73.20
2018-02-03T01:30:56.271Z,74.30
2018-02-03T01:33:23.820Z,74.40
2018-02-03T01:35:52.130Z,75.40
2018-02-03T01:38:19.656Z,75.40
2018-02-03T01:40:47.974Z,74.40
2018-02-03T01:43:15.489Z,74.40
2018-02-03T01:45:43.802Z,74.50
2018-02-03T01:48:12.279Z,74.40
2018-02-03T01:50:39.848Z,75.20
2018-02-03T01:53:07.370Z,74.30
2018-02-03T01:55:34.896Z,73.90
2018-02-03T01:58:02.464Z,73.90
2018-02-03T02:00:29.995Z,74.40
2018-02-03T02:02:57.574Z,74.30
2018-02-03T02:05:25.113Z,74.20
2018-02-03T02:07:52.674Z,73.40
2018-02-03T02:10:20.199Z,73.60
2018-02-03T02:12:47.758Z,74.00
2018-02-03T02:15:15.275Z,73.10
2018-02-03T02:17:42.803Z,73.40
2018-02-03T02:20:12.299Z,73.50
2018-02-03T02:22:39.815Z,72.80
2018-02-03T02:25:08.128Z,73.30
2018-02-03T02:27:35.973Z,73.30
2018-02-03T02:30:03.540Z,72.90
2018-02-03T02:32:31.074Z,73.00
2018-02-03T02:34:58.672Z,72.90
2018-02-03T02:37:26.222Z,73.10
2018-02-03T02:39:54.707Z,73.30
2018-02-03T02:42:22.260Z,73.40
2018-02-03T02:44:49.781Z,73.40
2018-02-03T02:47:17.349Z,73.30
2018-02-03T02:49:44.882Z,74.10
2018-02-03T02:52:12.444Z,73.60
2018-02-03T02:54:39.976Z,72.90
2018-02-03T02:57:07.503Z,71.80
2018-02-03T02:59:35.078Z,72.10
2018-02-03T03:02:02.621Z,71.60
2018-02-03T03:04:30.170Z,71.60
2018-02-03T03:06:57.710Z,71.80
2018-02-03T03:09:26.030Z,72.30
2018-02-03T03:11:53.550Z,72.20
2018-02-03T03:14:21.849Z,72.40
2018-02-03T03:16:49.397Z,72.30
2018-02-03T03:19:17.692Z,73.40
2018-02-03T03:21:45.264Z,73.40
2018-02-03T03:24:13.780Z,72.00
2018-02-03T03:26:41.326Z,72.90
2018-02-03T03:29:08.863Z,72.70
2018-02-03T03:31:37.354Z,72.70
2018-02-03T03:34:04.916Z,73.00
2018-02-03T03:36:32.443Z,70.90
2018-02-03T03:39:01.942Z,70.90
2018-02-03T03:41:29.477Z,72.40
2018-02-03T03:43:57.030Z,73.20
2018-02-03T03:46:24.564Z,73.60
2018-02-03T03:48:52.094Z,72.30
2018-02-03T03:51:19.631Z,71.60
2018-02-03T03:53:48.121Z,72.70
2018-02-03T03:56:17.623Z,73.20
2018-02-03T03:58:45.203Z,74.80
2018-02-03T04:01:12.751Z,76.10
2018-02-03T04:03:40.303Z,76.90
2018-02-03T04:06:07.844Z,76.70
2018-02-03T04:08:36.171Z,76.80
2018-02-03T04:11:03.694Z,76.80
2018-02-03T04:13:31.266Z,76.20
2018-02-03T04:15:58.791Z,75.00
2018-02-03T04:18:28.302Z,75.10
2018-02-03T04:20:55.823Z,74.70
2018-02-03T04:23:23.355Z,74.80
2018-02-03T04:25:50.904Z,74.80
2018-02-03T04:28:18.429Z,74.90
2018-02-03T04:30:46.004Z,75.00
2018-02-03T04:33:13.539Z,75.10
2018-02-03T04:35:41.087Z,75.00
2018-02-03T04:38:09.383Z,74.60
2018-02-03T04:40:38.895Z,74.60
2018-02-03T04:43:07.222Z,74.90
2018-02-03T04:45:34.764Z,74.90
2018-02-03T04:48:02.315Z,74.20
2018-02-03T04:50:29.841Z,74.80
2018-02-03T04:52:57.390Z,75.60
2018-02-03T04:55:25.681Z,76.40
2018-02-03T04:57:54.000Z,75.90
2018-02-03T05:00:21.607Z,75.90
2018-02-03T05:02:49.179Z,75.00
2018-02-03T05:05:18.442Z,74.70
2018-02-03T05:07:45.966Z,74.60
2018-02-03T05:10:13.544Z,74.50
2018-02-03T05:12:41.054Z,74.90
2018-02-03T05:15:09.395Z,75.00
2018-02-03T05:17:36.928Z,75.00
2018-02-03T05:20:06.480Z,74.50
2018-02-03T05:22:34.002Z,75.70
2018-02-03T05:25:01.546Z,75.20
2018-02-03T05:27:29.066Z,74.60
2018-02-03T05:29:56.593Z,74.40
2018-02-03T05:32:24.151Z,74.70
2018-02-03T05:34:51.688Z,74.90
2018-02-03T05:37:19.232Z,73.40
2018-02-03T05:39:46.755Z,74.70
2018-02-03T05:42:14.334Z,75.10
2018-02-03T05:44:42.668Z,74.40
2018-02-03T05:47:10.194Z,74.70
2018-02-03T05:49:37.740Z,75.10
2018-02-03T05:52:05.273Z,76.10
2018-02-03T05:54:32.829Z,75.60
2018-02-03T05:57:00.367Z,74.50
2018-02-03T05:59:28.696Z,76.50
2018-02-03T06:01:56.223Z,76.60
2018-02-03T06:04:24.546Z,77.00
2018-02-03T06:06:52.074Z,77.00
2018-02-03T06:09:19.608Z,77.10
2018-02-03T06:11:48.819Z,76.60
2018-02-03T06:14:16.335Z,76.50
2018-02-03T06:16:43.886Z,76.30
2018-02-03T06:19:12.360Z,76.00
2018-02-03T06:21:41.867Z,76.90
2018-02-03T06:24:09.392Z,77.20
2018-02-03T06:26:36.955Z,76.60
2018-02-03T06:29:04.489Z,76.00
2018-02-03T06:31:32.023Z,75.60
2018-02-03T06:33:59.590Z,75.80
2018-02-03T06:36:27.118Z,75.50
2018-02-03T06:38:54.677Z,75.50
2018-02-03T06:41:22.215Z,75.00
2018-02-03T06:43:52.218Z,75.10
2018-02-03T06:46:19.755Z,75.40
2018-02-03T06:48:47.318Z,75.20
2018-02-03T06:51:15.607Z,74.00
2018-02-03T06:53:43.134Z,74.00
2018-02-03T06:56:11.451Z,75.20
2018-02-03T06:58:38.974Z,75.20
2018-02-03T07:01:06.523Z,74.80
2018-02-03T07:03:34.054Z,74.10
2018-02-03T07:06:01.616Z,74.00
2018-02-03T07:08:29.143Z,73.80
2018-02-03T07:10:56.702Z,74.50
2018-02-03T07:13:24.249Z,74.70
2018-02-03T07:15:52.535Z,75.20
2018-02-03T07:18:20.095Z,75.10
2018-02-03T07:20:47.780Z,75.10
2018-02-03T07:23:17.247Z,75.10
2018-02-03T07:25:44.773Z,75.50
2018-02-03T07:28:12.326Z,74.40
2018-02-03T07:30:39.853Z,74.00
2018-02-03T07:33:07.410Z,75.90
2018-02-03T07:35:34.935Z,77.20
2018-02-03T07:38:04.218Z,77.50
2018-02-03T07:40:32.573Z,76.70
2018-02-03T07:43:00.103Z,76.70
2018-02-03T07:45:33.251Z,76.40
2018-02-03T07:48:00.802Z,76.20
2018-02-03T07:50:29.375Z,75.90
2018-02-03T07:52:56.895Z,76.80
2018-02-03T07:55:25.382Z,76.90
2018-02-03T07:57:53.148Z,76.90
2018-02-03T08:00:20.683Z,76.70
2018-02-03T08:02:48.251Z,77.00
2018-02-03T08:05:15.783Z,77.70
2018-02-03T08:07:44.094Z,78.30
2018-02-03T08:10:11.627Z,78.30
2018-02-03T08:12:39.191Z,79.80
2018-02-03T08:15:06.714Z,79.00
2018-02-03T08:17:34.273Z,78.20
2018-02-03T08:20:02.570Z,77.60
2018-02-03T08:22:30.860Z,78.80
2018-02-03T08:24:58.441Z,78.70
2018-02-03T08:27:26.000Z,78.40
2018-02-03T08:29:53.556Z,80.40
2018-02-03T08:32:21.508Z,81.50
2018-02-03T08:34:49.080Z,81.40
2018-02-03T08:37:16.653Z,79.50
2018-02-03T08:39:44.211Z,80.40
2018-02-03T08:42:12.742Z,80.90
2018-02-03T08:44:40.284Z,80.10
2018-02-03T08:47:07.843Z,79.90
2018-02-03T08:49:35.371Z,80.20
2018-02-03T08:52:02.936Z,80.10
2018-02-03T08:54:30.496Z,79.80
2018-02-03T08:56:58.046Z,79.00
2018-02-03T08:59:25.566Z,78.60
2018-02-03T09:01:53.137Z,79.10
2018-02-03T09:04:20.676Z,79.50
2018-02-03T09:06:48.979Z,78.50
2018-02-03T09:09:18.582Z,78.50
2018-02-03T09:11:57.839Z,78.80
2018-02-03T09:14:25.411Z,79.40
2018-02-03T09:16:52.956Z,78.00
2018-02-03T09:19:20.507Z,78.20
2018-02-03T09:21:48.043Z,77.60
2018-02-03T09:24:15.578Z,78.00
2018-02-03T09:26:45.120Z,77.70
2018-02-03T09:29:12.890Z,78.60
2018-02-03T09:31:40.461Z,78.60
2018-02-03T09:34:08.002Z,79.20
2018-02-03T09:36:35.570Z,80.10
2018-02-03T09:39:04.098Z,79.80
2018-02-03T09:41:32.620Z,79.70
2018-02-03T09:44:00.188Z,81.00
2018-02-03T09:46:27.753Z,81.50
2018-02-03T09:48:55.307Z,81.00
2018-02-03T09:51:22.833Z,79.60
2018-02-03T09:53:51.158Z,80.20
2018-02-03T09:56:18.685Z,80.20
2018-02-03T09:58:46.255Z,81.50
2018-02-03T10:01:13.812Z,79.90
2018-02-03T10:03:41.344Z,78.90
2018-02-03T10:06:09.678Z,79.40
2018-02-03T10:08:37.206Z,79.40
2018-02-03T10:11:04.764Z,79.10
2018-02-03T10:13:32.284Z,78.40
2018-02-03T10:15:59.839Z,77.10
2018-02-03T10:18:28.139Z,75.00
2018-02-03T10:20:55.669Z,74.90
2018-02-03T10:23:23.232Z,75.00
2018-02-03T10:25:50.754Z,75.50
2018-02-03T10:28:18.343Z,76.80
2018-02-03T10:30:46.861Z,75.70
2018-02-03T10:33:14.437Z,74.40
2018-02-03T10:35:41.967Z,75.80
2018-02-03T10:38:10.275Z,76.80
2018-02-03T10:40:37.833Z,76.80
2018-02-03T10:43:05.363Z,77.70
2018-02-03T10:45:33.701Z,76.40
2018-02-03T10:48:01.249Z,76.40
2018-02-03T10:50:28.822Z,73.10
2018-02-03T10:52:56.389Z,71.40
2018-02-03T10:55:23.946Z,72.30
2018-02-03T10:57:51.530Z,72.10
2018-02-03T11:00:19.851Z,70.60
2018-02-03T11:02:47.423Z,70.60
2018-02-03T11:05:15.895Z,74.00
2018-02-03T11:07:43.554Z,72.80
2018-02-03T11:10:11.082Z,72.10
2018-02-03T11:12:38.643Z,73.30
2018-02-03T11:15:06.171Z,72.80
2018-02-03T11:17:34.666Z,71.00
2018-02-03T11:20:03.219Z,70.90
2018-02-03T11:22:31.053Z,70.90
2018-02-03T11:24:58.935Z,70.80
2018-02-03T11:27:26.783Z,72.60
2018-02-03T11:29:55.503Z,73.10
2018-02-03T11:32:23.352Z,72.00
2018-02-03T11:34:50.900Z,71.30
2018-02-03T11:37:18.470Z,72.10
2018-02-03T11:39:45.995Z,71.00
2018-02-03T11:42:14.538Z,71.10
2018-02-03T11:44:42.834Z,71.50
2018-02-03T11:47:11.155Z,73.20
2018-02-03T11:49:38.678Z,73.20
2018-02-03T11:52:07.949Z,73.80
2018-02-03T11:54:35.509Z,73.80
2018-02-03T11:57:03.075Z,71.30
2018-02-03T11:59:30.644Z,70.60
2018-02-03T12:01:58.172Z,69.20
2018-02-03T12:04:27.660Z,67.10
2018-02-03T12:06:55.200Z,66.20
2018-02-03T12:09:23.703Z,65.50
2018-02-03T12:11:51.254Z,64.80
2018-02-03T12:14:18.776Z,68.30
2018-02-03T12:16:47.094Z,68.10
2018-02-03T12:19:14.629Z,68.00
2018-02-03T12:21:42.193Z,70.00
2018-02-03T12:24:09.728Z,69.80
2018-02-03T12:26:38.081Z,71.50
2018-02-03T12:29:05.622Z,71.60
2018-02-03T12:31:33.144Z,71.80
2018-02-03T12:34:00.700Z,70.60
2018-02-03T12:36:28.231Z,70.00
2018-02-03T12:38:55.780Z,72.40
2018-02-03T12:41:23.320Z,70.90
2018-02-03T12:43:50.878Z,68.60
2018-02-03T12:46:18.433Z,67.50
2018-02-03T12:48:45.959Z,69.20
2018-02-03T12:51:13.531Z,67.50
2018-02-03T12:53:41.052Z,68.30
2018-02-03T12:56:08.605Z,66.60
2018-02-03T12:58:37.855Z,69.10
2018-02-03T13:01:06.516Z,69.20
2018-02-03T13:03:34.056Z,66.20
2018-02-03T13:06:01.595Z,64.30
2018-02-03T13:08:29.150Z,61.50
2018-02-03T13:10:56.683Z,59.80
2018-02-03T13:13:24.255Z,60.40
2018-02-03T13:15:51.789Z,63.70
2018-02-03T13:18:19.358Z,62.50
2018-02-03T13:20:46.887Z,61.50
2018-02-03T13:23:14.459Z,61.20
2018-02-03T13:25:41.984Z,61.30
2018-02-03T13:28:09.527Z,62.10
2018-02-03T13:30:37.863Z,64.50
2018-02-03T13:33:05.386Z,64.50
2018-02-03T13:35:32.936Z,60.60
2018-02-03T13:38:00.471Z,62.70
2018-02-03T13:40:28.787Z,58.70
2018-02-03T13:42:56.340Z,58.70
2018-02-03T13:45:23.944Z,54.60
2018-02-03T13:47:51.470Z,55.00
2018-02-03T13:50:20.004Z,56.70
2018-02-03T13:52:47.558Z,55.10
2018-02-03T13:55:15.091Z,55.10
2018-02-03T13:57:44.574Z,55.50
2018-02-03T14:00:12.097Z,53.70
2018-02-03T14:02:39.659Z,54.20
2018-02-03T14:05:08.950Z,52.40
2018-02-03T14:07:37.163Z,52.50
2018-02-03T14:10:04.712Z,53.10
2018-02-03T14:12:32.256Z,52.90
2018-02-03T14:14:59.820Z,53.50
2018-02-03T14:17:27.361Z,52.90
2018-02-03T14:19:55.686Z,55.60
2018-02-03T14:22:24.175Z,55.60
2018-02-03T14:24:52.186Z,56.40
2018-02-03T14:27:21.739Z,55.90
2018-02-03T14:29:50.770Z,54.30
2018-02-03T14:32:18.347Z,54.70
2018-02-03T14:34:46.638Z,56.30
2018-02-03T14:37:14.972Z,55.10
2018-02-03T14:39:43.731Z,55.10
2018-02-03T14:42:11.431Z,55.90
2018-02-03T14:44:38.978Z,56.20
2018-02-03T14:47:06.509Z,56.30
2018-02-03T14:49:34.131Z,56.60
2018-02-03T14:52:01.663Z,56.10
2018-02-03T14:54:29.183Z,56.20
2018-02-03T14:56:58.711Z,55.90
2018-02-03T14:59:27.190Z,54.20
2018-02-03T15:01:54.760Z,56.20
2018-02-03T15:04:22.303Z,55.60
2018-02-03T15:06:49.871Z,56.80
2018-02-03T15:09:17.470Z,57.20
2018-02-03T15:11:45.041Z,55.90
2018-02-03T15:14:13.366Z,56.60
2018-02-03T15:16:40.900Z,56.50
2018-02-03T15:19:08.459Z,55.40
2018-02-03T15:21:35.983Z,55.00
2018-02-03T15:24:04.465Z,54.50
2018-02-03T15:26:32.795Z,55.50
2018-02-03T15:29:01.274Z,55.50
2018-02-03T15:31:28.834Z,55.30
2018-02-03T15:33:56.357Z,56.40
2018-02-03T15:36:23.874Z,56.40
2018-02-03T15:38:51.427Z,56.40
2018-02-03T15:41:18.963Z,57.10
2018-02-03T15:43:46.530Z,57.60
2018-02-03T15:46:14.057Z,57.60
2018-02-03T15:48:41.719Z,58.20
2018-02-03T15:51:09.243Z,58.30
2018-02-03T15:53:36.768Z,59.10
2018-02-03T15:56:04.326Z,59.60
2018-02-03T15:58:31.862Z,59.40
2018-02-03T16:01:01.814Z,58.70
2018-02-03T16:03:30.129Z,59.10
2018-02-03T16:05:57.914Z,59.60
2018-02-03T16:08:25.434Z,60.00
2018-02-03T16:10:56.695Z,60.00
2018-02-03T16:13:25.011Z,59.20
2018-02-03T16:15:52.602Z,59.10
2018-02-03T16:18:20.324Z,59.70
2018-02-03T16:20:47.876Z,60.90
2018-02-03T16:23:15.455Z,59.30
2018-02-03T16:25:43.975Z,60.30
2018-02-03T16:28:11.557Z,59.70
2018-02-03T16:30:39.087Z,58.80
2018-02-03T16:33:07.380Z,59.70
2018-02-03T16:35:34.943Z,59.70
2018-02-03T16:38:02.469Z,59.40
2018-02-03T16:40:30.041Z,58.70
2018-02-03T16:42:57.633Z,59.70
2018-02-03T16:45:25.543Z,59.90
2018-02-03T16:47:53.083Z,59.90
2018-02-03T16:50:20.613Z,59.10
2018-02-03T16:52:48.939Z,61.40
2018-02-03T16:55:16.480Z,61.30
2018-02-03T16:57:44.049Z,60.50
2018-02-03T17:00:11.577Z,59.70
2018-02-03T17:02:39.150Z,58.40
2018-02-03T17:05:06.697Z,58.10
2018-02-03T17:07:34.254Z,58.50
2018-02-03T17:10:01.782Z,58.00
2018-02-03T17:12:29.310Z,58.40
2018-02-03T17:14:56.866Z,58.30
2018-02-03T17:17:25.334Z,57.20
2018-02-03T17:19:52.915Z,56.90
2018-02-03T17:22:20.457Z,56.90
2018-02-03T17:24:48.019Z,57.00
2018-02-03T17:27:15.564Z,56.90
2018-02-03T17:29:43.124Z,57.20
2018-02-03T17:32:10.677Z,55.80
2018-02-03T17:34:38.233Z,56.90
2018-02-03T17:37:11.435Z,56.70
2018-02-03T17:39:39.123Z,56.50
2018-02-03T17:42:06.719Z,55.70
2018-02-03T17:44:35.036Z,55.20
2018-02-03T17:47:03.064Z,55.20
2018-02-03T17:49:31.351Z,55.30
2018-02-03T17:51:59.603Z,55.30
2018-02-03T17:54:27.125Z,54.80
2018-02-03T17:57:00.310Z,55.50
2018-02-03T17:59:27.903Z,55.30
2018-02-03T18:01:55.438Z,55.50
2018-02-03T18:04:22.991Z,54.90
2018-02-03T18:06:56.189Z,56.90
2018-02-03T18:09:26.715Z,56.10
2018-02-03T18:11:54.235Z,56.80
2018-02-03T18:14:21.794Z,58.20
2018-02-03T18:16:49.320Z,57.10
2018-02-03T18:19:16.850Z,58.30
2018-02-03T18:21:44.414Z,58.10
2018-02-03T18:24:11.977Z,58.40
2018-02-03T18:26:39.543Z,61.50
2018-02-03T18:29:07.134Z,63.20
2018-02-03T18:31:34.709Z,63.70
2018-02-03T18:34:03.170Z,64.80
2018-02-03T18:36:31.486Z,63.80
2018-02-03T18:38:59.020Z,63.70
2018-02-03T18:41:26.564Z,63.40
2018-02-03T18:43:54.891Z,64.30
2018-02-03T18:46:22.423Z,64.30
2018-02-03T18:48:49.984Z,65.40
2018-02-03T18:51:17.515Z,65.20
2018-02-03T18:53:45.830Z,64.40
2018-02-03T18:56:13.402Z,64.30
2018-02-03T18:58:40.927Z,64.40
2018-02-03T19:01:10.395Z,63.80
2018-02-03T19:03:37.941Z,65.10
2018-02-03T19:06:06.524Z,64.50
2018-02-03T19:08:35.313Z,64.90
2018-02-03T19:11:03.675Z,65.40
2018-02-03T19:13:31.212Z,65.40
2018-02-03T19:15:58.793Z,64.80
2018-02-03T19:18:26.317Z,66.00
2018-02-03T19:20:53.882Z,65.10
2018-02-03T19:23:23.437Z,66.90
2018-02-03T19:25:50.966Z,68.70
2018-02-03T19:28:18.518Z,68.50
2018-02-03T19:30:46.093Z,68.00
2018-02-03T19:33:13.635Z,68.40
2018-02-03T19:35:41.183Z,68.20
2018-02-03T19:38:09.699Z,67.30
2018-02-03T19:40:37.439Z,67.10
2018-02-03T19:43:04.965Z,67.00
2018-02-03T19:45:32.550Z,67.80
2018-02-03T19:48:00.093Z,68.60
2018-02-03T19:50:27.627Z,69.10
2018-02-03T19:52:55.245Z,68.50
2018-02-03T19:55:22.788Z,68.80
2018-02-03T19:57:50.353Z,70.30
2018-02-03T20:00:17.890Z,70.50
2018-02-03T20:02:46.248Z,70.90
2018-02-03T20:05:14.096Z,70.90
2018-02-03T20:07:41.657Z,71.20
2018-02-03T20:10:10.114Z,70.60
2018-02-03T20:12:37.640Z,71.10
2018-02-03T20:15:06.866Z,71.90
2018-02-03T20:17:34.394Z,73.20
2018-02-03T20:20:01.921Z,73.70
2018-02-03T20:22:29.490Z,74.10
2018-02-03T20:24:57.993Z,72.80
2018-02-03T20:27:25.670Z,72.80
2018-02-03T20:29:53.194Z,72.60
2018-02-03T20:32:20.744Z,72.40
2018-02-03T20:34:48.297Z,71.90
2018-02-03T20:37:15.826Z,72.00
2018-02-03T20:39:43.375Z,71.60
2018-02-03T20:42:10.895Z,71.10
2018-02-03T20:44:38.442Z,70.70
2018-02-03T20:47:05.991Z,71.40
2018-02-03T20:49:34.279Z,70.70
2018-02-03T20:52:02.650Z,70.40
2018-02-03T20:54:30.186Z,70.40
2018-02-03T20:56:58.666Z,70.40
2018-02-03T20:59:26.234Z,71.20
2018-02-03T21:01:53.774Z,71.00
2018-02-03T21:04:21.340Z,71.70
2018-02-03T21:06:48.875Z,72.20
2018-02-03T21:09:16.434Z,71.60
2018-02-03T21:11:43.960Z,71.80
2018-02-03T21:14:12.427Z,71.60
2018-02-03T21:16:40.748Z,71.70
2018-02-03T21:19:08.268Z,71.70
2018-02-03T21:21:35.814Z,72.40
2018-02-03T21:24:03.338Z,73.50
2018-02-03T21:26:30.864Z,72.90
2018-02-03T21:29:00.402Z,72.90
2018-02-03T21:31:27.930Z,73.00
2018-02-03T21:33:55.502Z,72.80
2018-02-03T21:36:23.064Z,72.40
2018-02-03T21:38:50.752Z,72.40
2018-02-03T21:41:18.373Z,73.00
2018-02-03T21:43:45.921Z,73.10
2018-02-03T21:46:15.537Z,73.40
2018-02-03T21:48:43.096Z,74.40
2018-02-03T21:51:10.667Z,75.50
2018-02-03T21:53:38.218Z,75.70
2018-02-03T21:56:05.800Z,76.90
2018-02-03T21:58:33.331Z,77.50
2018-02-03T22:01:00.871Z,76.40
2018-02-03T22:03:29.229Z,76.30
2018-02-03T22:05:56.750Z,76.30
2018-02-03T22:11:19.500Z,76.90
2018-02-03T22:13:47.067Z,76.90
2018-02-03T22:16:14.607Z,77.50
2018-02-03T22:18:42.158Z,77.00
2018-02-03T22:21:10.442Z,77.10
2018-02-03T22:23:37.982Z,77.00
2018-02-03T22:26:06.302Z,76.40
2018-02-03T22:28:34.823Z,76.20
2018-02-03T22:31:04.352Z,75.90
2018-02-03T22:33:31.891Z,76.20
2018-02-03T22:35:59.448Z,76.00
2018-02-03T22:38:26.986Z,76.20
2018-02-03T22:40:54.513Z,75.80
2018-02-03T22:43:22.056Z,75.90
2018-02-03T22:45:49.594Z,75.40
2018-02-03T22:48:17.153Z,75.60
2018-02-03T22:50:45.437Z,76.20
2018-02-03T22:53:13.769Z,75.40
2018-02-03T22:55:41.303Z,75.40
2018-02-03T22:58:09.881Z,76.80
2018-02-03T23:00:37.410Z,76.80
2018-02-03T23:03:05.701Z,76.60
2018-02-03T23:05:33.263Z,76.70
2018-02-03T23:08:00.783Z,75.70
2018-02-03T23:10:29.311Z,75.90
2018-02-03T23:12:56.826Z,75.80
2018-02-03T23:15:25.167Z,75.60
2018-02-03T23:17:52.708Z,75.60
2018-02-03T23:20:21.194Z,75.10
2018-02-03T23:22:48.754Z,75.70
2018-02-03T23:25:16.283Z,75.50
2018-02-03T23:27:43.855Z,75.40
2018-02-03T23:30:11.387Z,75.10
2018-02-03T23:32:39.805Z,74.10
2018-02-03T23:35:07.364Z,74.10
2018-02-03T23:37:34.918Z,75.40
2018-02-03T23:40:02.450Z,76.50
2018-02-03T23:42:30.143Z,76.10
2018-02-03T23:44:57.738Z,75.60
2018-02-03T23:47:25.297Z,75.70
2018-02-03T23:49:52.851Z,75.50
2018-02-03T23:52:21.389Z,75.40
2018-02-03T23:54:48.950Z,75.50
2018-02-03T23:57:16.774Z,75.10
2018-02-03T23:59:44.299Z,75.40
